Terminal Aerodrome Forecast
Issued by NWS Midland/Odessa, TX

Home | Current Version | Previous Version | Text Only | Print | Product List | Glossary On
Versions: 1 2 3 4 5 6 7 8 9 10 11 12 13 14 15 16 17 18 19 20 21 22 23 24 25 26 27 28 29
000
FTUS44 KMAF 200500
TAFMAF
TAF
KMAF 200526Z 2006/2106 12009KT P6SM OVC012
      TEMPO 2007/2011 4SM TSRA BR FEW010 BKN050CB
     FM201100 13008KT P6SM OVC010
      TEMPO 2011/2015 2SM TSRA BR OVC005CB
     FM202100 16010KT P6SM BKN040=

USA.gov is the U.S. government's official web portal to all federal, state and local government web resources and services.